createdAt,value
2019-02-08T00:00:27.684Z,88.43
2019-02-08T00:02:34.569Z,88.37
2019-02-08T00:04:41.652Z,88.56
2019-02-08T00:06:49.347Z,88.60
2019-02-08T00:08:56.283Z,89.01
2019-02-08T00:11:03.088Z,88.77
2019-02-08T00:13:11.044Z,88.83
2019-02-08T00:15:26.363Z,88.77
2019-02-08T00:17:33.871Z,88.87
2019-02-08T00:19:41.364Z,88.89
2019-02-08T00:21:48.684Z,88.78
2019-02-08T00:23:55.847Z,88.86
2019-02-08T00:26:02.764Z,88.78
2019-02-08T00:28:10.244Z,88.81
2019-02-08T00:30:26.531Z,88.89
2019-02-08T00:32:33.526Z,88.91
2019-02-08T00:34:40.284Z,89.05
2019-02-08T00:36:47.604Z,88.97
2019-02-08T00:38:54.413Z,89.18
2019-02-08T00:41:01.763Z,89.21
2019-02-08T00:43:09.444Z,89.47
2019-02-08T00:45:23.137Z,89.46
2019-02-08T00:47:30.244Z,89.65
2019-02-08T00:49:37.203Z,89.72
2019-02-08T00:51:44.085Z,89.86
2019-02-08T00:53:50.883Z,89.97
2019-02-08T00:55:57.926Z,90.00
2019-02-08T00:58:06.244Z,90.04
2019-02-08T01:00:17.203Z,90.11
2019-02-08T01:02:24.204Z,90.29
2019-02-08T01:04:31.285Z,90.30
2019-02-08T01:06:38.204Z,90.19
2019-02-08T01:08:45.204Z,90.26
2019-02-08T01:10:53.645Z,90.21
2019-02-08T01:13:01.087Z,90.17
2019-02-08T01:15:12.564Z,90.33
2019-02-08T01:17:19.604Z,90.43
2019-02-08T01:19:26.284Z,90.50
2019-02-08T01:21:32.914Z,90.49
2019-02-08T01:23:41.353Z,90.48
2019-02-08T01:25:48.687Z,90.48
2019-02-08T01:27:55.966Z,90.61
2019-02-08T01:30:05.519Z,90.56
2019-02-08T01:32:12.845Z,90.69
2019-02-08T01:34:19.606Z,90.79
2019-02-08T01:36:26.443Z,90.86
2019-02-08T01:38:35.604Z,91.02
2019-02-08T01:40:43.964Z,91.08
2019-02-08T01:42:51.003Z,91.19
2019-02-08T01:44:58.204Z,91.20
2019-02-08T01:47:05.363Z,91.29
2019-02-08T01:49:13.684Z,91.21
2019-02-08T01:51:20.444Z,91.21
2019-02-08T01:53:27.844Z,91.25
2019-02-08T01:55:35.445Z,91.25
2019-02-08T01:57:42.645Z,91.32
2019-02-08T01:59:50.084Z,91.27
2019-02-08T02:01:56.644Z,91.31
2019-02-08T02:04:03.503Z,91.36
2019-02-08T02:06:10.806Z,91.49
2019-02-08T02:08:17.995Z,91.55
2019-02-08T02:10:46.645Z,91.40
2019-02-08T02:12:54.044Z,91.36
2019-02-08T02:15:01.204Z,91.39
2019-02-08T02:17:09.885Z,91.43
2019-02-08T02:19:16.603Z,91.51
2019-02-08T02:21:24.863Z,91.46
2019-02-08T02:23:31.683Z,91.52
2019-02-08T02:25:38.382Z,91.59
2019-02-08T02:27:46.261Z,91.68
2019-02-08T02:29:55.302Z,91.70
2019-02-08T02:32:02.160Z,91.69
2019-02-08T02:34:10.702Z,91.77
2019-02-08T02:36:18.060Z,91.86
2019-02-08T02:38:24.801Z,91.86
2019-02-08T02:40:31.801Z,91.90
2019-02-08T02:42:38.362Z,91.96
2019-02-08T02:44:46.284Z,92.04
2019-02-08T02:46:54.763Z,92.04
2019-02-08T02:49:01.714Z,92.06
2019-02-08T02:51:08.502Z,92.15
2019-02-08T02:53:16.061Z,92.17
2019-02-08T02:55:32.422Z,92.15
2019-02-08T02:57:41.344Z,92.22
2019-02-08T02:59:47.986Z,92.19
2019-02-08T03:01:54.880Z,92.12
2019-02-08T03:04:02.140Z,92.05
2019-02-08T03:06:09.125Z,92.09
2019-02-08T03:08:17.539Z,92.16
2019-02-08T03:10:25.942Z,92.18
2019-02-08T03:12:32.657Z,92.20
2019-02-08T03:14:39.602Z,92.21
2019-02-08T03:16:46.420Z,92.21
2019-02-08T03:18:53.280Z,92.25
2019-02-08T03:21:00.622Z,92.30
2019-02-08T03:23:09.279Z,92.33
2019-02-08T03:25:21.379Z,92.38
2019-02-08T03:27:28.160Z,92.46
2019-02-08T03:29:35.700Z,92.54
2019-02-08T03:31:43.057Z,92.63
2019-02-08T03:33:50.358Z,92.70
2019-02-08T03:35:58.879Z,92.76
2019-02-08T03:38:06.065Z,92.79
2019-02-08T03:40:17.105Z,92.87
2019-02-08T03:42:24.146Z,92.86
2019-02-08T03:44:31.001Z,92.91
2019-02-08T03:46:37.467Z,92.91
2019-02-08T03:48:44.122Z,92.90
2019-02-08T03:50:50.800Z,92.84
2019-02-08T03:52:58.177Z,92.83
2019-02-08T03:55:06.842Z,92.83
2019-02-08T03:57:15.284Z,92.87
2019-02-08T03:59:22.282Z,92.89
2019-02-08T04:01:30.126Z,92.84
2019-02-08T04:03:37.250Z,92.85
2019-02-08T04:05:44.132Z,92.86
2019-02-08T04:07:52.837Z,92.81
2019-02-08T04:09:59.997Z,92.83
2019-02-08T04:12:06.978Z,92.83
2019-02-08T04:14:16.635Z,92.85
2019-02-08T04:16:23.318Z,92.85
2019-02-08T04:18:30.056Z,92.89
2019-02-08T04:20:38.605Z,92.89
2019-02-08T04:22:45.192Z,92.95
2019-02-08T04:24:51.825Z,92.94
2019-02-08T04:26:58.810Z,92.91
2019-02-08T04:29:05.573Z,92.87
2019-02-08T04:31:13.658Z,92.86
2019-02-08T04:33:20.213Z,92.87
2019-02-08T04:35:27.255Z,92.89
2019-02-08T04:37:33.960Z,92.87
2019-02-08T04:39:41.039Z,92.82
2019-02-08T04:41:49.023Z,92.80
2019-02-08T04:43:58.453Z,92.80
2019-02-08T04:46:06.202Z,92.81
2019-02-08T04:48:12.823Z,92.79
2019-02-08T04:50:28.794Z,92.78
2019-02-08T04:52:37.139Z,92.73
2019-02-08T04:54:43.853Z,92.69
2019-02-08T04:56:53.132Z,92.67
2019-02-08T04:58:59.581Z,92.71
2019-02-08T05:01:06.400Z,92.72
2019-02-08T05:03:13.342Z,92.75
2019-02-08T05:05:20.490Z,92.76
2019-02-08T05:07:27.993Z,92.78
2019-02-08T05:09:34.620Z,92.78
2019-02-08T05:11:41.461Z,92.83
2019-02-08T05:13:49.412Z,92.83
2019-02-08T05:15:55.861Z,92.97
2019-02-08T05:18:02.710Z,92.95
2019-02-08T05:20:18.046Z,92.91
2019-02-08T05:22:25.163Z,92.87
2019-02-08T05:24:32.180Z,92.86
2019-02-08T05:26:38.910Z,92.82
2019-02-08T05:28:46.756Z,92.81
2019-02-08T05:30:53.207Z,92.84
2019-02-08T05:33:20.775Z,92.83
2019-02-08T05:35:28.115Z,92.86
2019-02-08T05:37:34.887Z,92.86
2019-02-08T05:39:41.487Z,92.88
2019-02-08T05:41:48.348Z,92.90
2019-02-08T05:43:55.220Z,92.92
2019-02-08T05:46:01.752Z,92.94
2019-02-08T05:48:08.300Z,92.92
2019-02-08T05:50:25.935Z,92.95
2019-02-08T05:52:32.488Z,93.01
2019-02-08T05:54:39.244Z,93.05
2019-02-08T05:56:46.168Z,93.08
2019-02-08T05:58:54.178Z,93.09
2019-02-08T06:01:00.898Z,93.14
2019-02-08T06:03:08.176Z,93.18
2019-02-08T06:05:17.730Z,93.22
2019-02-08T06:07:25.356Z,93.25
2019-02-08T06:09:32.128Z,93.31
2019-02-08T06:11:38.908Z,93.36
2019-02-08T06:13:45.827Z,93.36
2019-02-08T06:15:52.439Z,93.42
2019-02-08T06:17:59.071Z,93.47
2019-02-08T06:20:10.184Z,93.66
2019-02-08T06:22:17.351Z,93.84
2019-02-08T06:24:25.666Z,94.02
2019-02-08T06:26:32.486Z,94.08
2019-02-08T06:28:39.030Z,93.88
2019-02-08T06:30:46.056Z,93.77
2019-02-08T06:32:55.510Z,93.50
2019-02-08T06:35:02.326Z,93.37
2019-02-08T06:37:09.116Z,93.37
2019-02-08T06:39:17.319Z,93.42
2019-02-08T06:41:23.916Z,93.45
2019-02-08T06:43:30.781Z,93.45
2019-02-08T06:45:38.027Z,93.41
2019-02-08T06:47:46.756Z,93.39
2019-02-08T06:49:54.597Z,93.36
2019-02-08T06:52:01.026Z,93.35
2019-02-08T06:54:07.966Z,93.31
2019-02-08T06:56:16.926Z,93.59
2019-02-08T06:58:26.407Z,93.87
2019-02-08T07:00:52.393Z,93.82
2019-02-08T07:03:20.695Z,93.46
2019-02-08T07:05:47.776Z,92.01
2019-02-08T07:08:09.834Z,90.88
2019-02-08T07:10:21.316Z,88.29
2019-02-08T07:12:32.206Z,89.45
2019-02-08T07:14:43.815Z,89.37
2019-02-08T07:17:01.496Z,89.05
2019-02-08T07:19:16.045Z,87.30
2019-02-08T07:21:31.685Z,88.88
2019-02-08T07:23:40.352Z,88.96
2019-02-08T07:25:48.768Z,86.74
2019-02-08T07:27:59.942Z,87.60
2019-02-08T07:30:12.461Z,88.62
2019-02-08T07:32:30.872Z,88.35
2019-02-08T07:34:39.355Z,85.51
2019-02-08T07:36:50.786Z,86.91
2019-02-08T07:39:03.778Z,87.55
2019-02-08T07:41:31.051Z,87.89
2019-02-08T07:43:40.375Z,87.93
2019-02-08T07:45:52.726Z,88.36
2019-02-08T07:48:10.425Z,88.47
2019-02-08T07:50:21.401Z,88.48
2019-02-08T07:52:47.241Z,88.41
2019-02-08T07:55:11.493Z,88.24
2019-02-08T07:57:23.956Z,87.94
2019-02-08T07:59:33.312Z,87.73
2019-02-08T08:01:46.354Z,87.48
2019-02-08T08:04:01.430Z,87.61
2019-02-08T08:06:09.615Z,87.29
2019-02-08T08:08:35.326Z,87.20
2019-02-08T08:10:46.915Z,87.09
2019-02-08T08:13:07.103Z,86.44
2019-02-08T08:15:18.995Z,86.76
2019-02-08T08:17:29.465Z,86.25
2019-02-08T08:19:52.862Z,86.34
2019-02-08T08:22:01.532Z,86.32
2019-02-08T08:24:12.915Z,86.41
2019-02-08T08:26:24.984Z,86.19
2019-02-08T08:28:42.963Z,85.77
2019-02-08T08:30:53.330Z,85.84
2019-02-08T08:33:04.905Z,85.62
2019-02-08T08:35:42.597Z,85.56
2019-02-08T08:38:13.096Z,85.73
2019-02-08T08:40:47.949Z,85.00
2019-02-08T08:43:36.719Z,85.08
2019-02-08T08:46:10.105Z,84.91
2019-02-08T08:48:48.892Z,84.68
2019-02-08T08:51:20.083Z,84.30
2019-02-08T08:54:01.036Z,84.48
2019-02-08T08:56:27.989Z,84.25
2019-02-08T08:59:05.515Z,84.20
2019-02-08T09:01:47.982Z,84.16
2019-02-08T09:04:07.861Z,83.72
2019-02-08T09:06:52.125Z,83.34
2019-02-08T09:09:18.559Z,83.31
2019-02-08T09:12:02.575Z,83.00
2019-02-08T09:14:39.205Z,82.70
2019-02-08T09:17:07.792Z,83.01
2019-02-08T09:19:31.960Z,82.71
2019-02-08T09:22:22.053Z,82.66
2019-02-08T09:24:53.761Z,82.17
2019-02-08T09:27:37.182Z,81.89
2019-02-08T09:30:16.773Z,81.65
2019-02-08T09:32:49.836Z,81.54
2019-02-08T09:35:25.266Z,81.20
2019-02-08T09:37:46.444Z,81.42
2019-02-08T09:39:57.385Z,81.44
2019-02-08T09:42:22.955Z,81.40
2019-02-08T09:45:27.345Z,80.76
2019-02-08T09:48:10.115Z,80.29
2019-02-08T09:50:41.704Z,80.46
2019-02-08T09:53:30.311Z,79.93
2019-02-08T09:55:44.154Z,80.01
2019-02-08T09:58:09.496Z,80.20
2019-02-08T10:00:35.098Z,79.85
2019-02-08T10:03:12.979Z,79.69
2019-02-08T10:05:43.406Z,79.64
2019-02-08T10:08:14.878Z,79.50
2019-02-08T10:10:54.612Z,79.25
2019-02-08T10:13:25.238Z,78.92
2019-02-08T10:16:11.039Z,78.58
2019-02-08T10:18:54.048Z,78.39
2019-02-08T10:21:26.305Z,78.24
2019-02-08T10:24:19.537Z,78.10
2019-02-08T10:26:57.478Z,77.94
2019-02-08T10:29:40.112Z,78.03
2019-02-08T10:32:27.222Z,77.48
2019-02-08T10:35:19.030Z,77.27
2019-02-08T10:37:57.024Z,77.03
2019-02-08T10:40:36.674Z,76.69
2019-02-08T10:43:03.476Z,76.63
2019-02-08T10:45:35.129Z,76.23
2019-02-08T10:48:10.175Z,76.09
2019-02-08T10:50:50.078Z,76.09
2019-02-08T10:53:53.150Z,75.90
2019-02-08T10:56:25.204Z,75.93
2019-02-08T10:59:16.795Z,75.76
2019-02-08T11:01:52.392Z,75.56
2019-02-08T11:04:34.695Z,75.73
2019-02-08T11:07:08.363Z,75.36
2019-02-08T11:09:53.876Z,75.29
2019-02-08T11:12:24.705Z,75.28
2019-02-08T11:15:03.535Z,74.54
2019-02-08T11:17:49.232Z,75.02
2019-02-08T11:19:59.107Z,74.21
2019-02-08T11:22:05.915Z,74.16
2019-02-08T11:24:13.094Z,73.81
2019-02-08T11:26:24.168Z,74.23
2019-02-08T11:28:30.055Z,74.06
2019-02-08T11:30:36.859Z,74.15
2019-02-08T11:32:45.122Z,74.10
2019-02-08T11:34:52.005Z,74.09
2019-02-08T11:36:58.882Z,73.34
2019-02-08T11:39:11.790Z,73.21
2019-02-08T11:41:18.653Z,73.62
2019-02-08T11:43:27.252Z,73.54
2019-02-08T11:45:33.756Z,73.84
2019-02-08T11:47:41.163Z,73.79
2019-02-08T11:49:47.872Z,73.16
2019-02-08T11:51:54.623Z,73.41
2019-02-08T11:54:04.030Z,72.98
2019-02-08T11:56:11.073Z,73.11
2019-02-08T11:58:17.705Z,72.94
2019-02-08T12:00:31.183Z,73.10
2019-02-08T12:02:40.510Z,73.17
2019-02-08T12:04:46.622Z,74.74
2019-02-08T12:06:53.350Z,72.70
2019-02-08T12:09:01.444Z,74.15
2019-02-08T12:11:09.432Z,74.88
2019-02-08T12:13:16.172Z,71.96
2019-02-08T12:15:24.505Z,71.95
2019-02-08T12:17:31.414Z,72.82
2019-02-08T12:19:38.379Z,71.05
2019-02-08T12:21:44.984Z,71.98
2019-02-08T12:23:51.623Z,72.19
2019-02-08T12:25:58.884Z,71.88
2019-02-08T12:28:06.606Z,72.38
2019-02-08T12:30:40.202Z,72.33
2019-02-08T12:32:49.937Z,72.57
2019-02-08T12:34:58.026Z,72.48
2019-02-08T12:37:04.741Z,72.70
2019-02-08T12:39:12.580Z,72.85
2019-02-08T12:41:18.963Z,72.76
2019-02-08T12:43:27.110Z,73.00
2019-02-08T12:45:33.965Z,72.73
2019-02-08T12:47:40.503Z,72.95
2019-02-08T12:49:48.531Z,73.00
2019-02-08T12:51:55.181Z,73.14
2019-02-08T12:54:03.283Z,73.13
2019-02-08T12:56:12.228Z,72.65
2019-02-08T12:58:18.680Z,73.04
2019-02-08T13:00:30.576Z,72.88
2019-02-08T13:02:37.335Z,73.23
2019-02-08T13:04:44.207Z,73.53
2019-02-08T13:06:51.119Z,73.29
2019-02-08T13:08:57.877Z,73.14
2019-02-08T13:11:06.084Z,73.48
2019-02-08T13:13:12.839Z,73.44
2019-02-08T13:15:19.983Z,73.42
2019-02-08T13:17:29.708Z,73.67
2019-02-08T13:19:36.327Z,73.51
2019-02-08T13:21:43.043Z,73.57
2019-02-08T13:23:49.682Z,73.46
2019-02-08T13:25:57.897Z,73.29
2019-02-08T13:28:04.388Z,73.34
2019-02-08T13:30:32.548Z,73.50
2019-02-08T13:32:39.187Z,73.56
2019-02-08T13:34:45.948Z,73.28
2019-02-08T13:36:52.847Z,73.47
2019-02-08T13:39:00.007Z,73.34
2019-02-08T13:41:06.835Z,73.56
2019-02-08T13:43:13.495Z,73.21
2019-02-08T13:45:20.931Z,73.36
2019-02-08T13:47:27.488Z,73.25
2019-02-08T13:49:36.774Z,73.14
2019-02-08T13:51:43.650Z,73.38
2019-02-08T13:53:51.796Z,73.47
2019-02-08T13:55:58.968Z,73.54
2019-02-08T13:58:06.207Z,73.35
2019-02-08T14:00:17.066Z,73.29
2019-02-08T14:02:23.643Z,73.84
2019-02-08T14:04:31.754Z,73.46
2019-02-08T14:06:38.702Z,73.41
2019-02-08T14:08:45.185Z,73.57
2019-02-08T14:10:53.150Z,73.61
2019-02-08T14:12:59.787Z,73.48
2019-02-08T14:15:11.639Z,73.33
2019-02-08T14:17:19.783Z,73.51
2019-02-08T14:19:26.572Z,73.55
2019-02-08T14:21:33.398Z,73.81
2019-02-08T14:23:41.225Z,73.76
2019-02-08T14:25:48.892Z,73.94
2019-02-08T14:27:55.514Z,74.00
2019-02-08T14:30:03.792Z,74.36
2019-02-08T14:32:11.166Z,74.54
2019-02-08T14:34:17.945Z,74.75
2019-02-08T14:36:24.494Z,74.97
2019-02-08T14:38:31.134Z,75.28
2019-02-08T14:40:38.968Z,75.29
2019-02-08T14:42:46.159Z,75.55
2019-02-08T14:44:53.005Z,75.70
2019-02-08T14:46:59.765Z,75.84
2019-02-08T14:49:06.775Z,75.83
2019-02-08T14:51:13.645Z,76.03
2019-02-08T14:53:20.642Z,76.28
2019-02-08T14:55:27.576Z,76.45
2019-02-08T14:57:34.333Z,76.50
2019-02-08T14:59:41.259Z,76.78
2019-02-08T15:01:49.176Z,76.80
2019-02-08T15:03:55.996Z,76.95
2019-02-08T15:06:02.696Z,77.18
2019-02-08T15:08:09.485Z,77.57
2019-02-08T15:10:20.331Z,77.72
2019-02-08T15:12:27.286Z,77.80
2019-02-08T15:14:34.872Z,78.16
2019-02-08T15:16:41.583Z,78.39
2019-02-08T15:18:48.296Z,78.71
2019-02-08T15:20:54.872Z,78.97
2019-02-08T15:23:01.789Z,79.14
2019-02-08T15:25:10.935Z,79.59
2019-02-08T15:27:24.174Z,79.73
2019-02-08T15:29:26.855Z,80.11
2019-02-08T15:31:33.634Z,80.22
2019-02-08T15:33:40.714Z,80.48
2019-02-08T15:35:50.154Z,80.57
2019-02-08T15:37:57.423Z,80.76
2019-02-08T15:40:05.805Z,81.05
2019-02-08T15:42:14.371Z,81.19
2019-02-08T15:44:21.923Z,81.37
2019-02-08T15:46:29.561Z,81.76
2019-02-08T15:48:36.915Z,81.84
2019-02-08T15:50:44.090Z,82.06
2019-02-08T15:52:52.761Z,82.27
2019-02-08T15:54:59.850Z,82.40
2019-02-08T15:57:08.150Z,82.59
2019-02-08T15:59:15.174Z,82.82
2019-02-08T16:01:22.082Z,82.97
2019-02-08T16:03:30.513Z,83.16
2019-02-08T16:05:38.161Z,83.34
2019-02-08T16:07:45.401Z,83.62
2019-02-08T16:09:52.373Z,83.72
2019-02-08T16:11:59.915Z,83.93
2019-02-08T16:14:09.354Z,83.85
2019-02-08T16:16:17.041Z,83.83
2019-02-08T16:18:24.009Z,83.87
2019-02-08T16:20:31.193Z,84.04
2019-02-08T16:22:38.424Z,84.15
2019-02-08T16:24:45.373Z,84.27
2019-02-08T16:26:52.611Z,84.44
2019-02-08T16:28:59.716Z,84.63
2019-02-08T16:31:07.251Z,84.77
2019-02-08T16:33:14.295Z,84.93
2019-02-08T16:35:24.114Z,85.05
2019-02-08T16:37:31.538Z,85.12
2019-02-08T16:39:38.624Z,85.20
2019-02-08T16:41:46.384Z,85.35
2019-02-08T16:43:53.805Z,85.25
2019-02-08T16:46:01.316Z,85.35
2019-02-08T16:48:17.802Z,85.50
2019-02-08T16:50:31.074Z,85.75
2019-02-08T16:52:38.057Z,85.65
2019-02-08T16:54:44.975Z,85.81
2019-02-08T16:56:52.361Z,85.96
2019-02-08T16:59:00.546Z,85.98
2019-02-08T17:01:08.463Z,86.13
2019-02-08T17:03:16.153Z,86.19
2019-02-08T17:05:27.141Z,86.20
2019-02-08T17:07:34.525Z,86.21
2019-02-08T17:09:41.695Z,86.22
2019-02-08T17:11:49.184Z,86.43
2019-02-08T17:13:57.404Z,86.61
2019-02-08T17:16:04.704Z,86.51
2019-02-08T17:18:12.411Z,86.58
2019-02-08T17:20:24.204Z,86.44
2019-02-08T17:22:31.321Z,86.49
2019-02-08T17:24:38.445Z,86.27
2019-02-08T17:26:45.606Z,86.26
2019-02-08T17:28:53.154Z,86.23
2019-02-08T17:31:00.605Z,86.16
2019-02-08T17:33:09.085Z,86.13
2019-02-08T17:35:22.353Z,86.05
2019-02-08T17:37:29.395Z,86.03
2019-02-08T17:39:36.842Z,86.08
2019-02-08T17:41:44.363Z,86.09
2019-02-08T17:43:53.163Z,86.23
2019-02-08T17:46:00.293Z,86.32
2019-02-08T17:48:11.570Z,86.43
2019-02-08T17:50:27.512Z,86.61
2019-02-08T17:52:35.371Z,86.67
2019-02-08T17:54:43.001Z,86.73
2019-02-08T17:56:50.374Z,86.79
2019-02-08T17:58:58.054Z,86.90
2019-02-08T18:01:05.473Z,86.88
2019-02-08T18:03:12.683Z,86.89
2019-02-08T18:05:20.332Z,86.90
2019-02-08T18:07:27.774Z,86.99
2019-02-08T18:09:35.314Z,87.00
2019-02-08T18:11:42.453Z,87.03
2019-02-08T18:13:49.722Z,87.02
2019-02-08T18:15:57.373Z,86.89
2019-02-08T18:18:09.236Z,86.97
2019-02-08T18:20:26.854Z,86.97
2019-02-08T18:22:34.006Z,87.08
2019-02-08T18:24:41.406Z,87.18
2019-02-08T18:26:48.925Z,87.27
2019-02-08T18:28:55.937Z,87.38
2019-02-08T18:31:03.134Z,87.42
2019-02-08T18:33:10.686Z,87.54
2019-02-08T18:35:18.522Z,87.50
2019-02-08T18:37:25.775Z,87.51
2019-02-08T18:39:33.071Z,87.50
2019-02-08T18:41:40.539Z,87.55
2019-02-08T18:43:48.541Z,87.63
2019-02-08T18:45:56.703Z,87.53
2019-02-08T18:48:04.175Z,87.48
2019-02-08T18:50:32.834Z,87.57
2019-02-08T18:52:39.944Z,87.70
2019-02-08T18:54:47.524Z,87.67
2019-02-08T18:56:54.954Z,87.79
2019-02-08T18:59:02.915Z,87.78
2019-02-08T19:01:10.232Z,87.86
2019-02-08T19:03:17.301Z,87.88
2019-02-08T19:05:25.754Z,87.97
2019-02-08T19:07:42.201Z,87.88
2019-02-08T19:09:49.364Z,87.90
2019-02-08T19:11:56.915Z,88.00
2019-02-08T19:14:03.952Z,88.03
2019-02-08T19:16:11.114Z,88.15
2019-02-08T19:18:18.750Z,88.10
2019-02-08T19:20:32.054Z,88.12
2019-02-08T19:22:40.743Z,88.12
2019-02-08T19:24:47.972Z,88.15
2019-02-08T19:26:55.531Z,88.18
2019-02-08T19:29:03.131Z,88.09
2019-02-08T19:31:10.502Z,88.05
2019-02-08T19:33:17.714Z,88.01
2019-02-08T19:35:25.111Z,87.88
2019-02-08T19:37:32.671Z,87.90
2019-02-08T19:39:44.501Z,88.03
2019-02-08T19:41:51.473Z,88.01
2019-02-08T19:43:59.031Z,88.02
2019-02-08T19:46:06.352Z,88.04
2019-02-08T19:48:14.111Z,88.12
2019-02-08T19:50:28.051Z,88.12
2019-02-08T19:52:34.985Z,87.99
2019-02-08T19:54:43.509Z,87.88
2019-02-08T19:56:50.914Z,87.80
2019-02-08T19:58:59.104Z,87.81
2019-02-08T20:01:08.444Z,87.78
2019-02-08T20:03:16.552Z,87.88
2019-02-08T20:05:28.340Z,87.97
2019-02-08T20:07:35.772Z,88.17
2019-02-08T20:09:43.577Z,88.05
2019-02-08T20:11:51.342Z,88.09
2019-02-08T20:13:58.654Z,88.06
2019-02-08T20:16:06.814Z,88.05
2019-02-08T20:18:14.691Z,88.07
2019-02-08T20:20:21.914Z,88.06
2019-02-08T20:22:29.324Z,88.13
2019-02-08T20:24:36.444Z,88.36
2019-02-08T20:26:43.706Z,88.25
2019-02-08T20:28:50.857Z,88.22
2019-02-08T20:30:57.931Z,88.24
2019-02-08T20:33:05.897Z,88.28
2019-02-08T20:35:16.724Z,88.25
2019-02-08T20:37:26.149Z,88.29
2019-02-08T20:39:34.306Z,88.26
2019-02-08T20:41:47.000Z,88.26
2019-02-08T20:43:54.539Z,88.32
2019-02-08T20:46:02.624Z,88.25
2019-02-08T20:48:22.372Z,88.32
2019-02-08T20:50:30.214Z,88.35
2019-02-08T20:52:37.862Z,88.30
2019-02-08T20:54:46.493Z,88.33
2019-02-08T20:56:59.033Z,88.34
2019-02-08T20:59:04.071Z,88.37
2019-02-08T21:01:14.723Z,88.51
2019-02-08T21:03:23.674Z,88.53
2019-02-08T21:05:32.225Z,88.53
2019-02-08T21:07:39.623Z,88.60
2019-02-08T21:09:46.514Z,88.69
2019-02-08T21:11:53.707Z,88.70
2019-02-08T21:14:00.721Z,88.66
2019-02-08T21:16:08.600Z,88.65
2019-02-08T21:18:15.788Z,88.71
2019-02-08T21:20:25.021Z,88.73
2019-02-08T21:22:32.180Z,88.75
2019-02-08T21:24:41.811Z,88.73
2019-02-08T21:26:49.580Z,88.70
2019-02-08T21:28:57.913Z,88.76
2019-02-08T21:31:11.562Z,88.76
2019-02-08T21:33:18.963Z,88.82
2019-02-08T21:35:25.924Z,88.88
2019-02-08T21:37:33.153Z,88.89
2019-02-08T21:39:40.115Z,88.89
2019-02-08T21:41:48.974Z,88.93
2019-02-08T21:43:56.485Z,88.99
2019-02-08T21:46:04.130Z,89.03
2019-02-08T21:48:12.763Z,89.02
2019-02-08T21:50:22.766Z,88.97
2019-02-08T21:52:30.194Z,88.94
2019-02-08T21:54:38.065Z,88.98
2019-02-08T21:56:45.318Z,88.87
2019-02-08T21:58:52.256Z,88.90
2019-02-08T22:00:59.620Z,88.92
2019-02-08T22:03:08.339Z,88.85
2019-02-08T22:05:15.529Z,88.80
2019-02-08T22:07:22.772Z,88.82
2019-02-08T22:09:29.744Z,88.85
2019-02-08T22:11:37.155Z,88.88
2019-02-08T22:13:44.074Z,89.02
2019-02-08T22:15:51.243Z,88.99
2019-02-08T22:17:58.224Z,89.06
2019-02-08T22:20:08.569Z,89.00
2019-02-08T22:22:15.234Z,88.97
2019-02-08T22:24:22.534Z,88.92
2019-02-08T22:26:30.905Z,88.83
2019-02-08T22:28:37.555Z,88.85
2019-02-08T22:30:44.394Z,88.84
2019-02-08T22:32:52.916Z,88.88
2019-02-08T22:34:59.684Z,88.93
2019-02-08T22:37:07.081Z,88.97
2019-02-08T22:39:15.513Z,88.95
2019-02-08T22:41:24.172Z,89.00
2019-02-08T22:43:34.052Z,89.04
2019-02-08T22:45:43.642Z,89.07
2019-02-08T22:47:50.434Z,89.13
2019-02-08T22:49:58.583Z,89.25
2019-02-08T22:52:05.714Z,89.26
2019-02-08T22:54:12.914Z,89.29
2019-02-08T22:56:19.607Z,89.30
2019-02-08T22:58:26.564Z,89.32
2019-02-08T23:00:44.833Z,89.35
2019-02-08T23:02:53.570Z,89.36
2019-02-08T23:05:00.087Z,89.35
2019-02-08T23:07:08.072Z,89.37
2019-02-08T23:09:21.835Z,89.34
2019-02-08T23:11:29.644Z,89.39
2019-02-08T23:13:36.552Z,89.40
2019-02-08T23:15:43.296Z,89.42
2019-02-08T23:17:50.084Z,89.41
2019-02-08T23:19:56.504Z,89.46
2019-02-08T23:22:03.303Z,89.44
2019-02-08T23:24:10.384Z,89.47
2019-02-08T23:26:17.154Z,89.50
2019-02-08T23:28:23.915Z,89.52
2019-02-08T23:30:30.774Z,89.58
2019-02-08T23:32:37.573Z,89.62
2019-02-08T23:34:45.262Z,89.67
2019-02-08T23:36:52.354Z,89.70
2019-02-08T23:38:59.433Z,89.74
2019-02-08T23:41:07.764Z,89.79
2019-02-08T23:43:14.741Z,89.87
2019-02-08T23:45:23.873Z,89.77
2019-02-08T23:47:31.124Z,89.78
2019-02-08T23:49:37.719Z,89.74
2019-02-08T23:51:44.647Z,89.70
2019-02-08T23:53:51.368Z,89.66
2019-02-08T23:55:59.130Z,89.55
2019-02-08T23:58:08.244Z,89.37
